Time;durP1;ratioP1;P1;durP2;ratioP2;P2;SDS_P1;SDS_P2;PMS_P1;PMS_P2;Temp;Humidity;BMP_temperature;BMP_pressure;BME280_temperature;BME280_humidity;BME280_pressure;Samples;Min_cycle;Max_cycle;Signal;HPM_P1;HPM_P2
2022/11/10 00:00:53;;;;;;;21.02;8.65;;;10.60;99.90;;;;;;5094033;28;20033;-63
2022/11/10 00:03:19;;;;;;;22.02;8.93;;;10.70;99.90;;;;;;5094871;28;20028;-63
2022/11/10 00:05:45;;;;;;;19.70;8.80;;;10.60;99.90;;;;;;5094924;28;20028;-63
2022/11/10 00:08:11;;;;;;;19.60;9.43;;;10.50;99.90;;;;;;5094335;28;20050;-63
2022/11/10 00:10:57;;;;;;;20.67;8.50;;;10.50;99.90;;;;;;5094777;28;20074;-63
2022/11/10 00:13:28;;;;;;;19.33;7.63;;;10.60;99.90;;;;;;5094154;28;20024;-63
2022/11/10 00:18:39;;;;;;;29.48;17.90;;;10.50;99.90;;;;;;5094248;28;20056;-63
2022/11/10 00:21:09;;;;;;;19.17;8.48;;;10.50;99.90;;;;;;5094327;28;20032;-63
2022/11/10 00:23:35;;;;;;;19.30;9.30;;;10.50;99.90;;;;;;5093940;28;20140;-63
2022/11/10 00:26:02;;;;;;;16.95;8.57;;;10.50;99.90;;;;;;5093863;28;20041;-64
2022/11/10 00:28:30;;;;;;;21.05;8.55;;;10.50;99.90;;;;;;5094200;28;20038;-63
2022/11/10 00:30:56;;;;;;;22.63;8.77;;;10.40;99.90;;;;;;5093885;28;20438;-63
2022/11/10 00:33:22;;;;;;;24.42;9.25;;;10.30;99.90;;;;;;5092552;28;20449;-63
2022/11/10 00:35:48;;;;;;;21.50;8.77;;;10.40;99.90;;;;;;5093848;28;20127;-63
2022/11/10 00:38:14;;;;;;;21.00;8.27;;;10.40;99.90;;;;;;5094090;28;20024;-63
2022/11/10 00:40:40;;;;;;;22.40;8.93;;;10.40;99.90;;;;;;5093935;28;20388;-64
2022/11/10 00:43:05;;;;;;;22.58;8.95;;;10.30;99.90;;;;;;5093670;28;20058;-64
2022/11/10 00:45:31;;;;;;;23.65;9.38;;;10.10;99.90;;;;;;5093471;28;20039;-63
2022/11/10 00:47:57;;;;;;;26.25;9.93;;;10.10;99.90;;;;;;5093468;28;20039;-63
2022/11/10 00:50:22;;;;;;;23.00;8.40;;;10.10;99.90;;;;;;5093705;28;20057;-63
2022/11/10 00:52:48;;;;;;;26.13;9.38;;;10.10;99.90;;;;;;5093543;28;20410;-64
2022/11/10 00:55:14;;;;;;;23.38;8.43;;;10.20;99.90;;;;;;5093798;28;20020;-63
2022/11/10 00:57:39;;;;;;;23.63;8.85;;;10.10;99.90;;;;;;5093539;28;20020;-63
2022/11/10 01:00:06;;;;;;;19.95;8.70;;;10.20;99.90;;;;;;5092980;28;20020;-63
2022/11/10 01:02:31;;;;;;;22.05;9.27;;;10.10;99.90;;;;;;5093332;28;20020;-63
2022/11/10 01:04:57;;;;;;;25.85;9.45;;;10.20;99.90;;;;;;5093578;28;20020;-63
2022/11/10 01:07:23;;;;;;;24.50;9.27;;;10.20;99.90;;;;;;5092201;28;20036;-63
2022/11/10 01:09:48;;;;;;;26.60;9.90;;;10.20;99.90;;;;;;5093369;28;20077;-64
2022/11/10 01:12:14;;;;;;;21.45;8.88;;;10.20;99.90;;;;;;5093178;28;20040;-64
2022/11/10 01:14:40;;;;;;;21.65;9.07;;;10.30;99.90;;;;;;5092996;28;20091;-63
2022/11/10 01:17:05;;;;;;;24.45;9.40;;;10.30;99.90;;;;;;5093144;28;20056;-63
2022/11/10 01:19:32;;;;;;;23.73;10.23;;;10.20;99.90;;;;;;5092958;28;20082;-62
2022/11/10 01:21:59;;;;;;;29.70;10.77;;;10.20;99.90;;;;;;5093012;28;20395;-63
2022/11/10 01:24:25;;;;;;;27.95;10.55;;;10.10;99.90;;;;;;5093100;28;20024;-63
2022/11/10 01:26:51;;;;;;;23.25;9.75;;;10.10;99.90;;;;;;5092575;28;20051;-63
2022/11/10 01:29:16;;;;;;;24.65;9.60;;;10.00;99.90;;;;;;5092666;28;20160;-63
2022/11/10 01:31:43;;;;;;;27.35;10.10;;;10.10;99.90;;;;;;5092997;28;20277;-63
2022/11/10 01:34:08;;;;;;;21.80;8.27;;;10.20;99.90;;;;;;5091512;28;20495;-64
2022/11/10 01:36:34;;;;;;;23.67;8.07;;;10.10;99.90;;;;;;5092591;28;20118;-64
2022/11/10 01:39:00;;;;;;;22.35;8.73;;;10.20;99.90;;;;;;5093080;28;20085;-64
2022/11/10 01:41:25;;;;;;;30.75;9.43;;;10.10;99.90;;;;;;5092253;28;20031;-63
2022/11/10 01:43:51;;;;;;;24.45;8.85;;;10.00;99.90;;;;;;5092369;28;20032;-63
2022/11/10 01:46:17;;;;;;;25.15;8.98;;;10.10;99.90;;;;;;5092681;28;20028;-63
2022/11/10 01:48:47;;;;;;;29.65;9.65;;;10.00;99.90;;;;;;5092620;28;20363;-63
2022/11/10 01:51:41;;;;;;;24.83;9.27;;;9.80;99.90;;;;;;5092837;28;20150;-64
2022/11/10 01:54:11;;;;;;;29.92;9.60;;;9.70;99.90;;;;;;5091885;28;20028;-63
2022/11/10 01:56:44;;;;;;;34.72;10.75;;;9.80;99.90;;;;;;5091925;28;20024;-63
2022/11/10 01:59:14;;;;;;;35.10;10.90;;;9.90;99.90;;;;;;5092879;28;20019;-63
2022/11/10 02:01:40;;;;;;;32.15;8.98;;;10.00;99.90;;;;;;5091882;28;20054;-63
2022/11/10 02:04:09;;;;;;;26.67;8.48;;;10.00;99.90;;;;;;5092404;28;20055;-63
2022/11/10 02:06:40;;;;;;;29.27;8.60;;;10.20;99.90;;;;;;5092016;28;20024;-64
2022/11/10 02:09:06;;;;;;;18.30;7.72;;;10.10;99.90;;;;;;5092174;28;20394;-63
2022/11/10 02:11:33;;;;;;;25.45;8.57;;;10.20;99.90;;;;;;5091649;28;20532;-63
2022/11/10 02:13:59;;;;;;;25.77;8.48;;;10.20;99.90;;;;;;5092257;28;20016;-63
2022/11/10 02:16:25;;;;;;;27.13;9.27;;;10.30;99.90;;;;;;5092443;28;20098;-63
2022/11/10 02:18:51;;;;;;;32.65;9.25;;;10.30;99.90;;;;;;5091913;28;20024;-63
2022/11/10 02:21:19;;;;;;;29.75;8.52;;;10.40;99.90;;;;;;5091900;28;20024;-63
2022/11/10 02:23:52;;;;;;;23.67;8.15;;;10.40;99.90;;;;;;5091782;28;20676;-63
2022/11/10 02:26:26;;;;;;;27.27;8.35;;;10.40;99.90;;;;;;5091784;28;20023;-63
2022/11/10 02:28:52;;;;;;;29.48;7.82;;;10.40;99.90;;;;;;5091527;28;20040;-63
2022/11/10 02:31:18;;;;;;;18.60;6.78;;;10.40;99.90;;;;;;5091791;28;20078;-63
2022/11/10 02:33:43;;;;;;;24.15;10.25;;;10.50;99.90;;;;;;5092106;28;20111;-63
2022/11/10 02:36:10;;;;;;;21.02;7.50;;;10.50;99.90;;;;;;5091673;28;20428;-63
2022/11/10 02:38:35;;;;;;;21.27;7.50;;;10.40;99.90;;;;;;5091793;28;20028;-63
2022/11/10 02:41:01;;;;;;;22.90;7.57;;;10.40;99.90;;;;;;5091437;28;20028;-64
2022/11/10 02:43:28;;;;;;;21.00;6.90;;;10.40;99.90;;;;;;5091475;28;20447;-63
2022/11/10 02:45:53;;;;;;;22.85;6.88;;;10.40;99.90;;;;;;5091635;28;20028;-63
2022/11/10 02:48:19;;;;;;;21.52;7.18;;;10.40;99.90;;;;;;5091889;28;20040;-63
2022/11/10 02:50:45;;;;;;;18.55;6.40;;;10.30;99.90;;;;;;5091358;28;20028;-63
2022/11/10 02:53:11;;;;;;;18.38;6.00;;;10.30;99.90;;;;;;5091809;28;20031;-64
2022/11/10 02:55:37;;;;;;;20.95;6.60;;;10.40;99.90;;;;;;5091586;28;20028;-63
2022/11/10 02:58:03;;;;;;;22.58;7.10;;;10.40;99.90;;;;;;5091521;28;20097;-63
2022/11/10 03:00:28;;;;;;;23.48;7.80;;;10.30;99.90;;;;;;5091389;28;20392;-64
2022/11/10 03:03:00;;;;;;;29.38;9.95;;;10.40;99.90;;;;;;5091336;28;20069;-64
2022/11/10 03:05:30;;;;;;;22.30;7.05;;;10.50;99.90;;;;;;5091861;28;20041;-64
2022/11/10 03:07:58;;;;;;;24.27;7.45;;;10.40;99.90;;;;;;5091058;28;20571;-63
2022/11/10 03:10:25;;;;;;;25.95;7.18;;;10.40;99.90;;;;;;5091026;28;20378;-64
2022/11/10 03:12:55;;;;;;;19.23;7.55;;;10.40;99.90;;;;;;5091167;28;20024;-63
2022/11/10 03:15:21;;;;;;;23.73;7.47;;;10.30;99.90;;;;;;5091096;28;20024;-63
2022/11/10 03:17:47;;;;;;;30.38;7.78;;;10.30;99.90;;;;;;5091395;28;20126;-63
2022/11/10 03:20:13;;;;;;;23.17;8.20;;;10.30;99.90;;;;;;5091626;28;20032;-63
2022/11/10 03:22:39;;;;;;;25.75;8.32;;;10.40;99.90;;;;;;5091264;28;20545;-63
2022/11/10 03:25:06;;;;;;;25.85;7.65;;;10.20;99.90;;;;;;5090659;28;20046;-64
2022/11/10 03:27:32;;;;;;;25.67;7.95;;;10.10;99.90;;;;;;5090934;28;20035;-63
2022/11/10 03:29:57;;;;;;;23.40;7.80;;;10.10;99.90;;;;;;5092885;28;20099;-64
2022/11/10 03:32:23;;;;;;;24.95;8.02;;;10.20;99.90;;;;;;5095171;28;20119;-63
2022/11/10 03:34:49;;;;;;;23.52;7.43;;;10.00;99.90;;;;;;5094676;28;20335;-63
2022/11/10 03:37:14;;;;;;;24.70;7.80;;;10.10;99.90;;;;;;5095357;28;20028;-63
2022/11/10 03:39:40;;;;;;;29.85;8.80;;;10.00;99.90;;;;;;5094872;28;20055;-63
2022/11/10 03:42:06;;;;;;;23.55;7.32;;;10.00;99.90;;;;;;5094737;28;20051;-63
2022/11/10 03:44:31;;;;;;;24.23;7.90;;;10.10;99.90;;;;;;5094626;28;20049;-64
2022/11/10 03:46:57;;;;;;;21.42;6.78;;;10.10;99.90;;;;;;5094623;28;20085;-63
2022/11/10 03:49:23;;;;;;;25.08;7.13;;;10.10;99.90;;;;;;5095247;28;20108;-64
2022/11/10 03:51:48;;;;;;;22.23;7.93;;;10.10;99.90;;;;;;5094863;28;20028;-63
2022/11/10 03:54:14;;;;;;;24.15;7.07;;;10.10;99.90;;;;;;5094341;28;20034;-63
2022/11/10 03:56:40;;;;;;;20.92;7.30;;;10.20;99.90;;;;;;5094664;28;20028;-63
2022/11/10 03:59:05;;;;;;;16.48;7.03;;;10.30;99.90;;;;;;5095148;28;20027;-63
2022/11/10 04:01:31;;;;;;;25.00;8.05;;;10.30;99.90;;;;;;5094467;28;20557;-64
2022/11/10 04:03:56;;;;;;;22.83;7.38;;;10.30;99.90;;;;;;5094547;28;20032;-63
2022/11/10 04:09:07;;;;;;;22.23;7.78;;;10.30;99.90;;;;;;5095172;28;20043;-63
2022/11/10 04:17:02;;;;;;;12.73;5.78;;;10.40;99.90;;;;;;5094360;28;20529;-63
2022/11/10 04:19:28;;;;;;;20.50;6.30;;;10.40;99.90;;;;;;5094118;28;20036;-63
2022/11/10 04:21:54;;;;;;;18.70;6.43;;;10.50;99.90;;;;;;5093766;28;20360;-63
2022/11/10 04:24:20;;;;;;;30.27;14.95;;;10.50;99.90;;;;;;5094039;28;20028;-63
2022/11/10 04:26:47;;;;;;;17.85;7.28;;;10.50;99.90;;;;;;5094473;28;20028;-63
2022/11/10 04:29:15;;;;;;;19.75;7.22;;;10.50;99.90;;;;;;5094195;28;20024;-63
2022/11/10 04:31:42;;;;;;;17.30;7.63;;;10.60;99.90;;;;;;5094037;28;20101;-63
2022/11/10 04:34:10;;;;;;;16.70;6.47;;;10.60;99.90;;;;;;5094375;28;20024;-63
2022/11/10 04:36:38;;;;;;;18.65;6.53;;;10.60;99.90;;;;;;5093302;28;20062;-63
2022/11/10 04:39:05;;;;;;;17.30;6.90;;;10.60;99.90;;;;;;5094094;28;20035;-63
2022/11/10 04:41:31;;;;;;;17.50;7.20;;;10.70;99.90;;;;;;5092392;28;20020;-64
2022/11/10 04:43:58;;;;;;;24.10;7.97;;;10.70;99.90;;;;;;5093757;28;20034;-63
2022/11/10 04:46:26;;;;;;;20.15;7.13;;;10.70;99.90;;;;;;5093902;28;20043;-63
2022/11/10 04:48:53;;;;;;;22.48;7.38;;;10.70;99.90;;;;;;5093785;28;20059;-63
2022/11/10 04:51:21;;;;;;;22.00;7.43;;;10.70;99.90;;;;;;5093288;28;20054;-63
2022/11/10 04:53:47;;;;;;;19.80;6.90;;;10.80;99.90;;;;;;5093527;28;20502;-63
2022/11/10 04:56:15;;;;;;;21.95;7.13;;;10.90;99.90;;;;;;5093515;28;20096;-64
2022/11/10 04:58:41;;;;;;;20.92;7.25;;;10.90;99.90;;;;;;5093591;28;20024;-63
2022/11/10 05:01:18;;;;;;;22.20;7.45;;;10.90;99.90;;;;;;5093812;28;20035;-64
2022/11/10 05:03:45;;;;;;;16.80;6.95;;;11.00;99.90;;;;;;5093289;28;20024;-63
2022/11/10 05:06:11;;;;;;;14.13;6.05;;;10.90;99.90;;;;;;5092867;28;20126;-63
2022/11/10 05:08:38;;;;;;;22.27;7.07;;;10.90;99.90;;;;;;5093349;28;20024;-64
2022/11/10 05:11:04;;;;;;;19.00;7.35;;;11.00;99.90;;;;;;5093270;28;20020;-63
2022/11/10 05:13:30;;;;;;;19.00;7.30;;;11.20;99.90;;;;;;5093270;28;20047;-63
2022/11/10 05:15:56;;;;;;;17.38;6.47;;;11.00;99.90;;;;;;5092978;28;20020;-63
2022/11/10 05:18:21;;;;;;;16.33;6.43;;;11.00;99.90;;;;;;5093218;28;20028;-63
2022/11/10 05:20:48;;;;;;;21.08;7.55;;;11.00;99.90;;;;;;5092805;28;20024;-63
2022/11/10 05:25:58;;;;;;;25.77;9.73;;;10.90;99.90;;;;;;5092978;28;20046;-63
2022/11/10 05:28:24;;;;;;;22.63;9.10;;;10.60;99.90;;;;;;5093452;28;20032;-63
2022/11/10 05:30:49;;;;;;;26.25;9.85;;;10.50;99.90;;;;;;5092855;28;20347;-63
2022/11/10 05:33:15;;;;;;;16.05;7.55;;;10.50;99.90;;;;;;5092706;28;20046;-64
2022/11/10 05:35:41;;;;;;;16.25;8.80;;;10.30;99.90;;;;;;5092688;28;20028;-63
2022/11/10 05:38:07;;;;;;;21.63;8.52;;;10.30;99.90;;;;;;5091280;28;20376;-63
2022/11/10 05:40:33;;;;;;;24.45;12.38;;;10.20;99.90;;;;;;5092827;28;20024;-64
2022/11/10 05:42:59;;;;;;;17.00;8.32;;;10.20;99.90;;;;;;5092601;28;20421;-64
2022/11/10 05:45:27;;;;;;;19.15;10.18;;;10.10;99.90;;;;;;5092446;28;20107;-64
2022/11/10 05:47:53;;;;;;;24.33;12.23;;;10.00;99.90;;;;;;5092807;28;20382;-63
2022/11/10 05:50:20;;;;;;;42.15;18.02;;;9.80;99.90;;;;;;5091994;28;20028;-64
2022/11/10 05:52:49;;;;;;;13.68;9.10;;;9.70;99.90;;;;;;5092147;28;20046;-64
2022/11/10 05:55:17;;;;;;;24.80;12.43;;;9.70;99.90;;;;;;5092453;28;20123;-64
2022/11/10 05:57:47;;;;;;;23.30;11.65;;;9.80;99.90;;;;;;5093256;28;20107;-63
2022/11/10 06:00:15;;;;;;;14.27;9.57;;;9.90;99.90;;;;;;5091093;28;20379;-63
2022/11/10 06:02:42;;;;;;;21.02;10.85;;;10.00;99.90;;;;;;5091813;28;20059;-64
2022/11/10 06:05:09;;;;;;;23.50;11.75;;;10.00;99.90;;;;;;5092312;28;20460;-63
2022/11/10 06:07:34;;;;;;;20.88;11.85;;;10.10;99.90;;;;;;5092006;28;20040;-64
2022/11/10 06:10:00;;;;;;;18.60;10.48;;;10.10;99.90;;;;;;5092105;28;20368;-64
2022/11/10 06:12:29;;;;;;;21.08;11.65;;;10.20;99.90;;;;;;5092459;28;20028;-63
2022/11/10 06:14:58;;;;;;;21.40;12.30;;;10.30;99.90;;;;;;5092103;28;20031;-63
2022/11/10 06:17:24;;;;;;;19.85;12.90;;;10.30;99.90;;;;;;5091605;28;20043;-64
2022/11/10 06:19:50;;;;;;;21.60;12.57;;;10.30;99.90;;;;;;5091839;28;20545;-64
2022/11/10 06:22:16;;;;;;;18.38;11.25;;;10.40;99.90;;;;;;5092181;28;20032;-64
2022/11/10 06:24:42;;;;;;;20.00;12.63;;;10.40;99.90;;;;;;5091526;28;20532;-64
2022/11/10 06:27:07;;;;;;;21.95;13.25;;;10.40;99.90;;;;;;5091741;28;20032;-63
2022/11/10 06:29:33;;;;;;;20.98;13.27;;;10.40;99.90;;;;;;5090572;28;20026;-63
2022/11/10 06:31:59;;;;;;;20.95;13.55;;;10.40;99.90;;;;;;5091299;28;20031;-63
2022/11/10 06:34:24;;;;;;;25.98;13.73;;;10.50;99.90;;;;;;5091509;28;20063;-63
2022/11/10 06:36:50;;;;;;;29.95;13.85;;;10.50;99.90;;;;;;5081107;28;20038;-66
2022/11/10 06:39:16;;;;;;;23.15;13.57;;;10.50;99.90;;;;;;5071954;28;20036;-63
2022/11/10 06:41:41;;;;;;;25.50;16.27;;;10.50;99.90;;;;;;5071226;28;20033;-63
2022/11/10 06:44:07;;;;;;;26.60;15.77;;;10.50;99.90;;;;;;5071427;28;20040;-63
2022/11/10 06:46:33;;;;;;;25.08;14.43;;;10.50;99.90;;;;;;5071056;28;20071;-64
2022/11/10 06:48:59;;;;;;;28.10;14.90;;;10.50;99.90;;;;;;5071925;28;20048;-63
2022/11/10 06:51:24;;;;;;;28.90;14.38;;;10.50;99.90;;;;;;5071108;28;20024;-63
2022/11/10 06:53:50;;;;;;;25.50;14.45;;;10.50;99.90;;;;;;5071017;28;20024;-63
2022/11/10 06:56:15;;;;;;;29.50;15.48;;;10.50;99.90;;;;;;5071309;28;20418;-64
2022/11/10 06:58:41;;;;;;;25.10;15.07;;;10.40;99.90;;;;;;5071110;28;20025;-63
2022/11/10 07:01:07;;;;;;;26.27;16.33;;;10.40;99.90;;;;;;5071295;28;20036;-63
2022/11/10 07:03:34;;;;;;;33.80;20.05;;;10.40;99.90;;;;;;5071070;28;20044;-63
2022/11/10 07:06:00;;;;;;;34.70;22.77;;;10.40;99.90;;;;;;5070799;28;20069;-63
2022/11/10 07:08:26;;;;;;;33.15;20.33;;;10.40;99.90;;;;;;5071581;28;20436;-64
2022/11/10 07:10:54;;;;;;;29.25;17.45;;;10.40;99.90;;;;;;5071374;28;20032;-64
2022/11/10 07:13:20;;;;;;;34.88;17.98;;;10.40;99.90;;;;;;5071285;28;20027;-64
2022/11/10 07:15:46;;;;;;;25.80;16.38;;;10.40;99.90;;;;;;5071315;28;20043;-63
2022/11/10 07:18:11;;;;;;;22.85;14.43;;;10.30;99.90;;;;;;5071088;28;20028;-64
2022/11/10 07:20:37;;;;;;;23.25;13.15;;;10.40;99.90;;;;;;5071603;28;20111;-63
2022/11/10 07:23:06;;;;;;;25.50;15.65;;;10.70;99.90;;;;;;5071144;28;20487;-63
2022/11/10 07:25:34;;;;;;;29.48;14.68;;;11.10;99.90;;;;;;5087092;28;20039;-63
2022/11/10 07:28:03;;;;;;;21.48;13.68;;;12.20;99.90;;;;;;5091502;28;20032;-63
2022/11/10 07:30:30;;;;;;;19.88;13.13;;;13.00;99.90;;;;;;5091021;28;20073;-63
2022/11/10 07:33:01;;;;;;;16.67;11.88;;;14.10;99.90;;;;;;5091264;28;20024;-64
2022/11/10 07:35:27;;;;;;;19.52;11.77;;;14.90;99.90;;;;;;5091424;28;20047;-63
2022/11/10 07:37:54;;;;;;;20.58;11.77;;;15.40;99.90;;;;;;5091059;28;20053;-62
2022/11/10 07:40:21;;;;;;;16.45;10.38;;;15.30;99.90;;;;;;5091208;28;20687;-63
2022/11/10 07:42:46;;;;;;;20.40;11.30;;;15.90;99.90;;;;;;5091280;28;20122;-65
2022/11/10 07:45:12;;;;;;;18.58;11.60;;;15.50;99.90;;;;;;5090922;28;20431;-64
2022/11/10 07:47:38;;;;;;;18.05;10.95;;;16.20;99.90;;;;;;5090354;28;20044;-63
2022/11/10 07:50:04;;;;;;;15.95;10.82;;;16.00;99.90;;;;;;5090831;28;20502;-63
2022/11/10 07:52:30;;;;;;;15.18;10.65;;;17.10;99.90;;;;;;5091413;28;20035;-63
2022/11/10 07:54:55;;;;;;;13.38;10.10;;;17.70;99.90;;;;;;5090868;28;20020;-63
2022/11/10 07:57:21;;;;;;;17.15;11.85;;;18.20;99.90;;;;;;5091136;28;20529;-62
2022/11/10 07:59:46;;;;;;;17.27;11.85;;;18.30;99.90;;;;;;5090506;28;20043;-61
2022/11/10 08:02:12;;;;;;;12.98;10.45;;;18.90;99.90;;;;;;5091455;28;20098;-63
2022/11/10 08:04:38;;;;;;;19.10;11.40;;;19.80;99.90;;;;;;5090358;28;20027;-63
2022/11/10 08:07:04;;;;;;;16.52;10.82;;;19.50;99.90;;;;;;5090355;28;20028;-63
2022/11/10 08:09:29;;;;;;;18.58;11.07;;;19.90;99.90;;;;;;5090777;28;20371;-61
2022/11/10 08:11:55;;;;;;;15.55;10.65;;;19.20;99.90;;;;;;5091386;28;20063;-61
2022/11/10 08:14:21;;;;;;;13.52;10.73;;;18.70;99.90;;;;;;5089505;28;20486;-61
2022/11/10 08:16:47;;;;;;;11.60;9.13;;;19.10;99.90;;;;;;5093110;28;20024;-61
2022/11/10 08:19:12;;;;;;;11.27;8.65;;;20.50;99.90;;;;;;5094630;28;20028;-64
2022/11/10 08:21:38;;;;;;;12.15;8.30;;;20.20;99.90;;;;;;5094740;28;20028;-63
2022/11/10 08:24:04;;;;;;;12.48;8.13;;;20.40;99.90;;;;;;5094099;28;20114;-62
2022/11/10 08:26:30;;;;;;;13.32;8.82;;;21.70;99.90;;;;;;5093858;28;20056;-62
2022/11/10 08:28:56;;;;;;;11.63;8.30;;;21.20;99.90;;;;;;5093882;28;20203;-62
2022/11/10 08:31:22;;;;;;;9.73;8.18;;;21.60;99.90;;;;;;5094465;28;20024;-62
2022/11/10 08:33:48;;;;;;;12.48;9.35;;;22.20;99.90;;;;;;5095672;28;20020;-62
2022/11/10 08:36:14;;;;;;;12.48;8.18;;;20.60;99.90;;;;;;5094446;28;20174;-62
2022/11/10 08:38:39;;;;;;;14.93;8.27;;;21.00;99.90;;;;;;5094230;28;20137;-62
2022/11/10 08:41:05;;;;;;;11.82;8.30;;;20.30;99.90;;;;;;5095309;28;20038;-62
2022/11/10 08:43:31;;;;;;;12.75;7.65;;;19.60;99.90;;;;;;5093996;28;20044;-62
2022/11/10 08:45:57;;;;;;;13.77;9.55;;;21.50;99.90;;;;;;5094328;28;20028;-62
2022/11/10 08:48:23;;;;;;;14.40;9.25;;;21.10;99.90;;;;;;5093872;28;20043;-62
2022/11/10 08:50:50;;;;;;;11.75;7.70;;;20.80;99.90;;;;;;5093877;28;20036;-62
2022/11/10 08:53:19;;;;;;;11.48;8.20;;;21.40;99.90;;;;;;5094479;28;20148;-62
2022/11/10 08:55:45;;;;;;;11.98;7.38;;;21.20;99.90;;;;;;5094701;28;20036;-62
2022/11/10 08:58:13;;;;;;;10.48;6.35;;;22.90;99.90;;;;;;5093970;28;20028;-62
2022/11/10 09:00:39;;;;;;;9.40;6.78;;;23.40;99.90;;;;;;5093808;28;20057;-60
2022/11/10 09:03:13;;;;;;;12.23;6.78;;;24.40;99.90;;;;;;5093859;28;20028;-61
2022/11/10 09:05:39;;;;;;;11.07;6.35;;;23.70;99.90;;;;;;5094327;28;20429;-61
2022/11/10 09:08:05;;;;;;;11.35;6.35;;;23.70;99.90;;;;;;5093469;28;20290;-61
2022/11/10 09:10:33;;;;;;;10.40;6.95;;;24.30;99.90;;;;;;5092801;28;20024;-62
2022/11/10 09:13:00;;;;;;;11.57;7.18;;;22.80;99.90;;;;;;5093406;28;20445;-62
2022/11/10 09:15:26;;;;;;;9.60;6.80;;;21.90;99.90;;;;;;5093030;28;20103;-62
2022/11/10 09:17:52;;;;;;;10.38;6.72;;;23.30;99.90;;;;;;5093826;28;20424;-62
2022/11/10 09:20:18;;;;;;;9.45;6.40;;;25.20;99.90;;;;;;5093349;28;20028;-62
2022/11/10 09:22:44;;;;;;;9.45;6.35;;;24.60;99.90;;;;;;5093044;28;20052;-62
2022/11/10 09:25:09;;;;;;;11.65;6.07;;;24.00;99.90;;;;;;5093233;28;20029;-63
2022/11/10 09:27:38;;;;;;;13.35;8.07;;;24.30;99.90;;;;;;5092480;28;20417;-61
2022/11/10 09:30:05;;;;;;;12.60;8.65;;;23.80;99.90;;;;;;5093223;28;20543;-64
2022/11/10 09:32:32;;;;;;;9.43;6.43;;;24.20;99.90;;;;;;5093014;28;20497;-61
2022/11/10 09:34:58;;;;;;;12.45;7.68;;;25.10;99.90;;;;;;5093073;28;20023;-61
2022/11/10 09:37:24;;;;;;;11.35;6.93;;;24.10;99.90;;;;;;5093336;28;20156;-61
2022/11/10 09:39:49;;;;;;;11.65;6.75;;;24.60;99.90;;;;;;5093082;28;20020;-61
2022/11/10 09:42:36;;;;;;;13.15;6.50;;;25.30;99.90;;;;;;5092290;28;20068;-61
2022/11/10 09:45:06;;;;;;;14.23;7.07;;;25.10;99.90;;;;;;5092951;28;20027;-61
2022/11/10 09:47:47;;;;;;;16.73;7.22;;;25.10;99.90;;;;;;5092903;28;20447;-61
2022/11/10 09:50:32;;;;;;;11.50;6.30;;;26.00;99.90;;;;;;5092961;28;20502;-61
2022/11/10 09:52:59;;;;;;;9.55;6.13;;;26.50;99.90;;;;;;5092874;28;20308;-61
2022/11/10 09:55:39;;;;;;;11.75;5.70;;;25.60;99.90;;;;;;5092788;28;20038;-61
2022/11/10 09:58:04;;;;;;;10.13;6.10;;;26.90;99.90;;;;;;5092617;28;20035;-61
2022/11/10 10:00:32;;;;;;;12.43;5.97;;;25.90;99.90;;;;;;5092647;28;20028;-62
2022/11/10 10:03:01;;;;;;;10.48;5.35;;;25.20;99.90;;;;;;5092678;28;20047;-61
2022/11/10 10:05:50;;;;;;;12.05;5.50;;;25.70;99.90;;;;;;5092826;28;20430;-61
2022/11/10 10:08:19;;;;;;;11.73;5.72;;;26.00;99.90;;;;;;5092156;28;20063;-61
2022/11/10 10:11:06;;;;;;;16.73;5.90;;;26.40;99.90;;;;;;5092376;28;20426;-61
2022/11/10 10:13:56;;;;;;;10.13;5.50;;;26.60;99.90;;;;;;5092748;28;20085;-63
2022/11/10 10:16:54;;;;;;;12.10;5.82;;;25.60;99.90;;;;;;5091985;28;20024;-62
2022/11/10 10:19:29;;;;;;;9.32;5.13;;;25.70;99.90;;;;;;5089540;28;20065;-62
2022/11/10 10:22:10;;;;;;;12.52;5.38;;;26.80;99.90;;;;;;5090278;28;20020;-62
2022/11/10 10:24:37;;;;;;;10.98;4.90;;;26.60;99.90;;;;;;5089505;28;20054;-62
2022/11/10 10:27:05;;;;;;;12.15;5.30;;;27.20;99.90;;;;;;5090016;28;20395;-62
2022/11/10 10:29:44;;;;;;;10.70;4.85;;;27.50;99.90;;;;;;5089826;28;20465;-62
2022/11/10 10:32:14;;;;;;;12.98;4.70;;;26.10;99.90;;;;;;5089914;28;20517;-62
2022/11/10 10:34:40;;;;;;;14.40;4.65;;;25.30;99.90;;;;;;5089632;28;20032;-62
2022/11/10 10:37:22;;;;;;;9.50;5.10;;;26.20;99.90;;;;;;5089430;28;20030;-62
2022/11/10 10:39:51;;;;;;;9.80;4.80;;;26.90;99.90;;;;;;5088764;28;20154;-62
2022/11/10 10:42:30;;;;;;;13.13;5.10;;;26.70;99.90;;;;;;5090997;28;20063;-62
2022/11/10 10:45:25;;;;;;;11.13;4.80;;;27.70;99.90;;;;;;5090026;28;20028;-62
2022/11/10 10:47:53;;;;;;;9.73;4.68;;;26.80;99.90;;;;;;5089922;28;20112;-62
2022/11/10 10:50:31;;;;;;;11.68;4.88;;;26.60;99.90;;;;;;5089849;28;20074;-62
2022/11/10 10:53:15;;;;;;;13.18;4.30;;;26.70;99.90;;;;;;5089765;28;20020;-62
2022/11/10 10:56:04;;;;;;;12.15;4.47;;;26.70;99.90;;;;;;5083878;28;20506;-62
2022/11/10 10:58:35;;;;;;;12.93;4.55;;;26.30;99.90;;;;;;5071638;28;20012;-62
2022/11/10 11:01:14;;;;;;;8.80;4.45;;;25.70;99.90;;;;;;5071625;28;20029;-62
2022/11/10 11:03:39;;;;;;;13.82;5.35;;;26.00;99.90;;;;;;5071602;28;20052;-62
2022/11/10 11:06:14;;;;;;;11.65;4.80;;;26.20;99.90;;;;;;5071710;28;20079;-62
2022/11/10 11:08:55;;;;;;;17.10;9.45;;;26.90;99.90;;;;;;5071198;28;20043;-61
2022/11/10 11:11:29;;;;;;;13.93;7.90;;;24.80;99.90;;;;;;5071594;28;20528;-62
2022/11/10 11:14:22;;;;;;;11.70;5.85;;;24.50;99.90;;;;;;5071925;28;20032;-62
2022/11/10 11:17:10;;;;;;;12.57;6.70;;;24.90;99.90;;;;;;5071540;28;20499;-62
2022/11/10 11:19:37;;;;;;;10.02;4.68;;;24.50;99.90;;;;;;5071767;28;20067;-62
2022/11/10 11:22:09;;;;;;;11.88;4.93;;;23.60;99.90;;;;;;5070852;28;20560;-62
2022/11/10 11:24:43;;;;;;;12.02;4.30;;;24.00;99.90;;;;;;5077502;28;20103;-62
2022/11/10 11:27:32;;;;;;;11.35;3.78;;;24.00;99.90;;;;;;5091934;28;20032;-62
2022/11/10 11:30:45;;;;;;;12.68;3.85;;;24.00;99.90;;;;;;5091632;28;20524;-62
2022/11/10 11:33:36;;;;;;;9.70;3.50;;;24.60;99.90;;;;;;5089649;28;20482;-65
2022/11/10 11:36:13;;;;;;;11.20;4.65;;;23.60;99.90;;;;;;5088953;28;20029;-62
2022/11/10 11:39:15;;;;;;;10.80;5.07;;;21.80;99.90;;;;;;5089249;28;20028;-62
2022/11/10 11:42:11;;;;;;;13.60;4.57;;;21.50;99.90;;;;;;5089094;28;20051;-62
2022/11/10 11:45:06;;;;;;;10.55;3.85;;;20.60;99.90;;;;;;4989576;28;20074;-61
2022/11/10 11:48:17;;;;;;;12.55;5.30;;;20.10;99.90;;;;;;4987832;28;20583;-62
2022/11/10 11:50:53;;;;;;;11.45;4.18;;;20.50;99.90;;;;;;4990083;28;20401;-62
2022/11/10 11:53:45;;;;;;;9.52;3.33;;;20.60;99.90;;;;;;4993285;28;20030;-62
2022/11/10 11:56:29;;;;;;;10.60;3.42;;;21.80;99.90;;;;;;4993333;28;20124;-62
2022/11/10 11:59:10;;;;;;;8.55;3.38;;;21.80;99.90;;;;;;4993447;28;20026;-61
2022/11/10 12:01:35;;;;;;;7.60;3.45;;;22.40;99.90;;;;;;4993712;28;20039;-61
2022/11/10 12:04:16;;;;;;;9.38;3.25;;;22.60;99.90;;;;;;4993122;28;20034;-62
2022/11/10 12:07:02;;;;;;;9.40;4.03;;;21.70;99.90;;;;;;4992814;28;20034;-62
2022/11/10 12:09:43;;;;;;;12.13;3.30;;;21.90;99.90;;;;;;4993424;28;20058;-62
2022/11/10 12:12:56;;;;;;;7.60;2.88;;;21.20;99.90;;;;;;4992925;28;20045;-61
2022/11/10 12:15:33;;;;;;;9.60;3.17;;;21.50;99.90;;;;;;4993122;28;20038;-62
2022/11/10 12:18:17;;;;;;;8.60;3.22;;;21.00;99.90;;;;;;4993078;28;20517;-62
2022/11/10 12:21:10;;;;;;;10.90;4.13;;;20.60;99.90;;;;;;4999526;28;20162;-61
2022/11/10 12:23:59;;;;;;;9.00;2.70;;;20.50;99.90;;;;;;5074099;28;20054;-62
2022/11/10 12:26:34;;;;;;;9.02;3.17;;;20.10;99.90;;;;;;5074369;28;20028;-61
2022/11/10 12:29:15;;;;;;;8.50;3.42;;;19.70;99.90;;;;;;5074265;28;20024;-62
2022/11/10 12:31:44;;;;;;;8.63;3.05;;;19.40;99.90;;;;;;5074274;28;20028;-62
2022/11/10 12:34:45;;;;;;;9.73;3.30;;;19.00;99.90;;;;;;5073977;28;20020;-62
2022/11/10 12:37:20;;;;;;;7.72;2.80;;;19.20;99.90;;;;;;5074518;28;20451;-61
2022/11/10 12:39:53;;;;;;;10.30;3.92;;;19.40;99.90;;;;;;5073786;28;20028;-61
2022/11/10 12:42:26;;;;;;;11.32;3.20;;;19.70;99.90;;;;;;5074090;28;20059;-61
2022/11/10 12:45:05;;;;;;;10.57;3.10;;;19.40;99.90;;;;;;5074148;28;20518;-61
2022/11/10 12:47:40;;;;;;;9.98;3.10;;;19.40;99.90;;;;;;5072444;28;20040;-61
2022/11/10 12:50:15;;;;;;;7.57;2.90;;;19.50;99.90;;;;;;5073330;28;20110;-61
2022/11/10 12:52:58;;;;;;;11.10;3.33;;;19.20;99.90;;;;;;5073488;28;20028;-61
2022/11/10 12:55:38;;;;;;;10.20;2.95;;;19.40;99.90;;;;;;5073866;28;20012;-61
2022/11/10 12:58:06;;;;;;;7.43;2.70;;;19.60;99.90;;;;;;5073620;28;20509;-61
2022/11/10 13:00:53;;;;;;;7.65;2.80;;;18.70;99.90;;;;;;5073740;28;20061;-62
2022/11/10 13:03:31;;;;;;;10.85;3.17;;;18.70;99.90;;;;;;5072444;28;20032;-61